sensor_id;sensor_type;location;lat;lon;timestamp;P1;durP1;ratioP1;P2;durP2;ratioP2
40939;SDS011;26666;50.156;7.700;2023-06-26T00:01:03;7.03;;;1.98;;
40939;SDS011;26666;50.156;7.700;2023-06-26T00:06:06;2.75;;;1.80;;
40939;SDS011;26666;50.156;7.700;2023-06-26T00:11:08;3.40;;;2.15;;
40939;SDS011;26666;50.156;7.700;2023-06-26T00:16:10;4.80;;;1.55;;
40939;SDS011;26666;50.156;7.700;2023-06-26T00:21:13;2.63;;;1.70;;
40939;SDS011;26666;50.156;7.700;2023-06-26T00:26:14;4.82;;;2.65;;
40939;SDS011;26666;50.156;7.700;2023-06-26T00:31:16;4.60;;;2.00;;
40939;SDS011;26666;50.156;7.700;2023-06-26T00:36:19;2.97;;;1.35;;
40939;SDS011;26666;50.156;7.700;2023-06-26T00:41:21;3.38;;;1.90;;
40939;SDS011;26666;50.156;7.700;2023-06-26T00:46:23;5.05;;;2.17;;
40939;SDS011;26666;50.156;7.700;2023-06-26T00:51:26;3.63;;;2.15;;
40939;SDS011;26666;50.156;7.700;2023-06-26T00:56:29;2.50;;;1.90;;
40939;SDS011;26666;50.156;7.700;2023-06-26T01:01:32;2.83;;;2.08;;
40939;SDS011;26666;50.156;7.700;2023-06-26T01:06:35;4.00;;;1.20;;
40939;SDS011;26666;50.156;7.700;2023-06-26T01:11:37;3.47;;;1.73;;
40939;SDS011;26666;50.156;7.700;2023-06-26T01:16:39;3.42;;;1.60;;
40939;SDS011;26666;50.156;7.700;2023-06-26T01:21:43;3.03;;;1.95;;
40939;SDS011;26666;50.156;7.700;2023-06-26T01:26:48;3.03;;;1.60;;
40939;SDS011;26666;50.156;7.700;2023-06-26T01:31:53;2.90;;;1.73;;
40939;SDS011;26666;50.156;7.700;2023-06-26T01:36:55;6.35;;;2.15;;
40939;SDS011;26666;50.156;7.700;2023-06-26T01:41:58;3.28;;;1.52;;
40939;SDS011;26666;50.156;7.700;2023-06-26T01:47:01;2.00;;;1.42;;
40939;SDS011;26666;50.156;7.700;2023-06-26T01:52:06;5.32;;;1.90;;
40939;SDS011;26666;50.156;7.700;2023-06-26T01:57:11;3.03;;;1.95;;
40939;SDS011;26666;50.156;7.700;2023-06-26T02:02:14;2.88;;;1.70;;
40939;SDS011;26666;50.156;7.700;2023-06-26T02:07:15;3.65;;;2.03;;
40939;SDS011;26666;50.156;7.700;2023-06-26T02:12:19;3.00;;;1.70;;
40939;SDS011;26666;50.156;7.700;2023-06-26T02:17:20;3.38;;;1.65;;
40939;SDS011;26666;50.156;7.700;2023-06-26T02:22:22;4.50;;;1.92;;
40939;SDS011;26666;50.156;7.700;2023-06-26T02:27:25;2.53;;;1.70;;
40939;SDS011;26666;50.156;7.700;2023-06-26T02:32:27;2.40;;;1.80;;
40939;SDS011;26666;50.156;7.700;2023-06-26T02:37:29;13.73;;;1.75;;
40939;SDS011;26666;50.156;7.700;2023-06-26T02:42:32;5.72;;;2.03;;
40939;SDS011;26666;50.156;7.700;2023-06-26T02:52:37;5.05;;;2.25;;
40939;SDS011;26666;50.156;7.700;2023-06-26T02:57:40;5.70;;;1.83;;
40939;SDS011;26666;50.156;7.700;2023-06-26T03:02:42;2.60;;;1.65;;
40939;SDS011;26666;50.156;7.700;2023-06-26T03:07:44;3.78;;;1.65;;
40939;SDS011;26666;50.156;7.700;2023-06-26T03:12:47;3.42;;;1.85;;
40939;SDS011;26666;50.156;7.700;2023-06-26T03:17:49;3.90;;;1.35;;
40939;SDS011;26666;50.156;7.700;2023-06-26T03:22:51;5.38;;;2.15;;
40939;SDS011;26666;50.156;7.700;2023-06-26T03:27:54;2.70;;;1.33;;
40939;SDS011;26666;50.156;7.700;2023-06-26T03:32:56;3.05;;;1.45;;
40939;SDS011;26666;50.156;7.700;2023-06-26T03:37:58;2.22;;;1.45;;
40939;SDS011;26666;50.156;7.700;2023-06-26T03:43:01;2.22;;;1.40;;
40939;SDS011;26666;50.156;7.700;2023-06-26T03:48:03;5.07;;;1.67;;
40939;SDS011;26666;50.156;7.700;2023-06-26T03:53:05;4.80;;;1.65;;
40939;SDS011;26666;50.156;7.700;2023-06-26T03:58:08;5.28;;;1.80;;
40939;SDS011;26666;50.156;7.700;2023-06-26T04:03:10;4.18;;;1.27;;
40939;SDS011;26666;50.156;7.700;2023-06-26T04:08:13;4.43;;;1.95;;
40939;SDS011;26666;50.156;7.700;2023-06-26T04:13:16;4.80;;;2.10;;
40939;SDS011;26666;50.156;7.700;2023-06-26T04:18:17;2.63;;;1.40;;
40939;SDS011;26666;50.156;7.700;2023-06-26T04:23:19;3.53;;;1.40;;
40939;SDS011;26666;50.156;7.700;2023-06-26T04:28:22;5.40;;;2.25;;
40939;SDS011;26666;50.156;7.700;2023-06-26T04:33:24;4.55;;;1.60;;
40939;SDS011;26666;50.156;7.700;2023-06-26T04:38:25;4.78;;;1.50;;
40939;SDS011;26666;50.156;7.700;2023-06-26T04:43:29;2.83;;;1.38;;
40939;SDS011;26666;50.156;7.700;2023-06-26T04:48:30;4.10;;;1.55;;
40939;SDS011;26666;50.156;7.700;2023-06-26T04:53:32;2.55;;;1.88;;
40939;SDS011;26666;50.156;7.700;2023-06-26T04:58:35;2.15;;;1.25;;
40939;SDS011;26666;50.156;7.700;2023-06-26T05:03:37;4.53;;;1.88;;
40939;SDS011;26666;50.156;7.700;2023-06-26T05:08:39;4.28;;;1.92;;
40939;SDS011;26666;50.156;7.700;2023-06-26T05:13:42;4.05;;;1.88;;
40939;SDS011;26666;50.156;7.700;2023-06-26T05:18:43;4.90;;;1.77;;
40939;SDS011;26666;50.156;7.700;2023-06-26T05:23:45;5.38;;;1.27;;
40939;SDS011;26666;50.156;7.700;2023-06-26T05:28:50;3.03;;;1.42;;
40939;SDS011;26666;50.156;7.700;2023-06-26T05:33:52;6.63;;;1.98;;
40939;SDS011;26666;50.156;7.700;2023-06-26T05:38:59;2.10;;;1.17;;
40939;SDS011;26666;50.156;7.700;2023-06-26T05:44:02;1.77;;;1.40;;
40939;SDS011;26666;50.156;7.700;2023-06-26T05:49:04;3.38;;;2.13;;
40939;SDS011;26666;50.156;7.700;2023-06-26T05:54:06;2.75;;;1.23;;
40939;SDS011;26666;50.156;7.700;2023-06-26T05:59:10;2.38;;;1.58;;
40939;SDS011;26666;50.156;7.700;2023-06-26T06:04:13;2.85;;;1.55;;
40939;SDS011;26666;50.156;7.700;2023-06-26T06:09:15;3.50;;;1.90;;
40939;SDS011;26666;50.156;7.700;2023-06-26T06:14:18;4.75;;;2.38;;
40939;SDS011;26666;50.156;7.700;2023-06-26T06:19:19;3.17;;;2.05;;
40939;SDS011;26666;50.156;7.700;2023-06-26T06:24:22;4.10;;;1.58;;
40939;SDS011;26666;50.156;7.700;2023-06-26T06:29:26;3.45;;;1.88;;
40939;SDS011;26666;50.156;7.700;2023-06-26T06:34:27;4.18;;;2.20;;
40939;SDS011;26666;50.156;7.700;2023-06-26T06:39:29;4.75;;;1.60;;
40939;SDS011;26666;50.156;7.700;2023-06-26T06:44:32;3.30;;;2.03;;
40939;SDS011;26666;50.156;7.700;2023-06-26T06:49:34;4.35;;;1.83;;
40939;SDS011;26666;50.156;7.700;2023-06-26T06:54:50;4.55;;;1.58;;
40939;SDS011;26666;50.156;7.700;2023-06-26T06:59:54;3.08;;;1.67;;
40939;SDS011;26666;50.156;7.700;2023-06-26T07:04:56;4.10;;;1.98;;
40939;SDS011;26666;50.156;7.700;2023-06-26T07:09:59;2.67;;;1.65;;
40939;SDS011;26666;50.156;7.700;2023-06-26T07:15:02;3.72;;;2.17;;
40939;SDS011;26666;50.156;7.700;2023-06-26T07:25:07;3.30;;;1.52;;
40939;SDS011;26666;50.156;7.700;2023-06-26T07:30:11;4.00;;;1.88;;
40939;SDS011;26666;50.156;7.700;2023-06-26T07:35:13;2.83;;;1.73;;
40939;SDS011;26666;50.156;7.700;2023-06-26T07:40:15;2.20;;;1.25;;
40939;SDS011;26666;50.156;7.700;2023-06-26T07:45:18;3.50;;;1.73;;
40939;SDS011;26666;50.156;7.700;2023-06-26T07:50:20;2.20;;;1.52;;
40939;SDS011;26666;50.156;7.700;2023-06-26T07:55:22;2.53;;;1.77;;
40939;SDS011;26666;50.156;7.700;2023-06-26T08:00:25;9.85;;;2.28;;
40939;SDS011;26666;50.156;7.700;2023-06-26T08:05:27;3.83;;;1.90;;
40939;SDS011;26666;50.156;7.700;2023-06-26T08:10:29;3.10;;;1.73;;
40939;SDS011;26666;50.156;7.700;2023-06-26T08:15:33;2.63;;;2.00;;
40939;SDS011;26666;50.156;7.700;2023-06-26T08:20:34;2.00;;;1.38;;
40939;SDS011;26666;50.156;7.700;2023-06-26T08:25:36;5.25;;;2.60;;
40939;SDS011;26666;50.156;7.700;2023-06-26T08:30:42;4.82;;;1.35;;
40939;SDS011;26666;50.156;7.700;2023-06-26T08:35:44;3.83;;;2.05;;
40939;SDS011;26666;50.156;7.700;2023-06-26T08:40:45;9.55;;;1.58;;
40939;SDS011;26666;50.156;7.700;2023-06-26T08:45:49;16.17;;;2.30;;
40939;SDS011;26666;50.156;7.700;2023-06-26T08:50:52;3.10;;;1.65;;
40939;SDS011;26666;50.156;7.700;2023-06-26T08:55:55;8.90;;;1.58;;
40939;SDS011;26666;50.156;7.700;2023-06-26T09:01:00;4.72;;;1.65;;
40939;SDS011;26666;50.156;7.700;2023-06-26T09:06:02;4.28;;;1.52;;
40939;SDS011;26666;50.156;7.700;2023-06-26T09:11:06;3.50;;;2.00;;
40939;SDS011;26666;50.156;7.700;2023-06-26T09:16:09;3.08;;;1.55;;
40939;SDS011;26666;50.156;7.700;2023-06-26T09:21:11;3.63;;;1.63;;
40939;SDS011;26666;50.156;7.700;2023-06-26T09:26:13;6.95;;;2.08;;
40939;SDS011;26666;50.156;7.700;2023-06-26T09:31:18;2.00;;;1.00;;
40939;SDS011;26666;50.156;7.700;2023-06-26T09:36:40;20.67;;;2.63;;
40939;SDS011;26666;50.156;7.700;2023-06-26T09:41:42;5.10;;;1.15;;
40939;SDS011;26666;50.156;7.700;2023-06-26T09:46:47;3.25;;;1.92;;
40939;SDS011;26666;50.156;7.700;2023-06-26T09:51:49;3.05;;;1.25;;
40939;SDS011;26666;50.156;7.700;2023-06-26T09:56:51;3.83;;;1.63;;
40939;SDS011;26666;50.156;7.700;2023-06-26T10:01:59;3.03;;;1.27;;
40939;SDS011;26666;50.156;7.700;2023-06-26T10:07:02;5.72;;;1.85;;
40939;SDS011;26666;50.156;7.700;2023-06-26T10:12:16;1.92;;;1.10;;
40939;SDS011;26666;50.156;7.700;2023-06-26T10:17:22;3.88;;;1.30;;
40939;SDS011;26666;50.156;7.700;2023-06-26T10:22:29;2.28;;;1.75;;
40939;SDS011;26666;50.156;7.700;2023-06-26T10:27:33;1.63;;;0.88;;
40939;SDS011;26666;50.156;7.700;2023-06-26T10:32:39;2.20;;;1.20;;
40939;SDS011;26666;50.156;7.700;2023-06-26T10:37:42;1.45;;;0.80;;
40939;SDS011;26666;50.156;7.700;2023-06-26T10:42:45;3.72;;;1.60;;
40939;SDS011;26666;50.156;7.700;2023-06-26T10:47:48;3.15;;;1.73;;
40939;SDS011;26666;50.156;7.700;2023-06-26T10:53:09;3.45;;;1.45;;
40939;SDS011;26666;50.156;7.700;2023-06-26T10:58:29;2.10;;;1.02;;
40939;SDS011;26666;50.156;7.700;2023-06-26T11:03:33;3.70;;;1.33;;
40939;SDS011;26666;50.156;7.700;2023-06-26T11:08:43;8.15;;;1.60;;
40939;SDS011;26666;50.156;7.700;2023-06-26T11:13:46;3.42;;;1.20;;
40939;SDS011;26666;50.156;7.700;2023-06-26T11:18:50;7.55;;;1.40;;
40939;SDS011;26666;50.156;7.700;2023-06-26T11:23:52;10.23;;;2.30;;
40939;SDS011;26666;50.156;7.700;2023-06-26T11:28:56;4.82;;;1.35;;
40939;SDS011;26666;50.156;7.700;2023-06-26T11:34:00;2.85;;;1.35;;
40939;SDS011;26666;50.156;7.700;2023-06-26T11:39:03;3.53;;;1.30;;
40939;SDS011;26666;50.156;7.700;2023-06-26T11:44:06;5.03;;;1.20;;
40939;SDS011;26666;50.156;7.700;2023-06-26T11:49:11;2.80;;;1.23;;
40939;SDS011;26666;50.156;7.700;2023-06-26T11:54:13;5.93;;;1.23;;
40939;SDS011;26666;50.156;7.700;2023-06-26T11:59:14;2.88;;;0.63;;
40939;SDS011;26666;50.156;7.700;2023-06-26T12:04:18;1.70;;;0.70;;
40939;SDS011;26666;50.156;7.700;2023-06-26T12:09:21;4.05;;;0.70;;
40939;SDS011;26666;50.156;7.700;2023-06-26T12:14:23;2.22;;;1.10;;
40939;SDS011;26666;50.156;7.700;2023-06-26T12:19:28;2.37;;;1.13;;
40939;SDS011;26666;50.156;7.700;2023-06-26T12:24:31;18.73;;;2.35;;
40939;SDS011;26666;50.156;7.700;2023-06-26T12:29:32;1.85;;;0.93;;
40939;SDS011;26666;50.156;7.700;2023-06-26T12:34:37;3.10;;;0.80;;
40939;SDS011;26666;50.156;7.700;2023-06-26T12:39:46;9.80;;;0.73;;
40939;SDS011;26666;50.156;7.700;2023-06-26T12:44:49;2.08;;;0.77;;
40939;SDS011;26666;50.156;7.700;2023-06-26T12:49:53;9.23;;;1.60;;
40939;SDS011;26666;50.156;7.700;2023-06-26T12:54:55;1.83;;;0.90;;
40939;SDS011;26666;50.156;7.700;2023-06-26T12:59:58;0.60;;;0.45;;
40939;SDS011;26666;50.156;7.700;2023-06-26T13:05:01;2.92;;;0.47;;
40939;SDS011;26666;50.156;7.700;2023-06-26T13:10:03;1.38;;;0.50;;
40939;SDS011;26666;50.156;7.700;2023-06-26T13:15:05;0.20;;;0.20;;
40939;SDS011;26666;50.156;7.700;2023-06-26T13:20:10;1.65;;;0.22;;
40939;SDS011;26666;50.156;7.700;2023-06-26T13:25:12;2.53;;;0.52;;
40939;SDS011;26666;50.156;7.700;2023-06-26T13:30:14;0.68;;;0.20;;
40939;SDS011;26666;50.156;7.700;2023-06-26T13:35:20;2.90;;;0.20;;
40939;SDS011;26666;50.156;7.700;2023-06-26T13:40:22;4.32;;;0.40;;
40939;SDS011;26666;50.156;7.700;2023-06-26T13:45:24;2.65;;;0.55;;
40939;SDS011;26666;50.156;7.700;2023-06-26T13:50:33;2.20;;;0.50;;
40939;SDS011;26666;50.156;7.700;2023-06-26T13:55:54;4.05;;;0.40;;
40939;SDS011;26666;50.156;7.700;2023-06-26T14:00:55;2.70;;;0.30;;
40939;SDS011;26666;50.156;7.700;2023-06-26T14:05:59;4.90;;;0.20;;
40939;SDS011;26666;50.156;7.700;2023-06-26T14:11:00;1.50;;;0.20;;
40939;SDS011;26666;50.156;7.700;2023-06-26T14:16:02;1.60;;;0.13;;
40939;SDS011;26666;50.156;7.700;2023-06-26T14:21:06;7.65;;;0.10;;
40939;SDS011;26666;50.156;7.700;2023-06-26T14:26:07;1.90;;;0.52;;
40939;SDS011;26666;50.156;7.700;2023-06-26T14:31:09;1.50;;;0.10;;
40939;SDS011;26666;50.156;7.700;2023-06-26T14:36:12;0.30;;;0.30;;
40939;SDS011;26666;50.156;7.700;2023-06-26T14:41:14;2.58;;;0.88;;
40939;SDS011;26666;50.156;7.700;2023-06-26T14:46:16;3.78;;;0.10;;
40939;SDS011;26666;50.156;7.700;2023-06-26T14:51:20;1.10;;;0.40;;
40939;SDS011;26666;50.156;7.700;2023-06-26T14:56:22;3.97;;;1.08;;
40939;SDS011;26666;50.156;7.700;2023-06-26T15:01:23;3.67;;;0.30;;
40939;SDS011;26666;50.156;7.700;2023-06-26T15:06:27;1.83;;;0.28;;
40939;SDS011;26666;50.156;7.700;2023-06-26T15:11:29;0.70;;;0.20;;
40939;SDS011;26666;50.156;7.700;2023-06-26T15:16:30;7.47;;;0.43;;
40939;SDS011;26666;50.156;7.700;2023-06-26T15:21:34;0.30;;;0.22;;
40939;SDS011;26666;50.156;7.700;2023-06-26T15:26:35;3.17;;;0.20;;
40939;SDS011;26666;50.156;7.700;2023-06-26T15:31:37;4.50;;;0.30;;
40939;SDS011;26666;50.156;7.700;2023-06-26T15:36:40;0.65;;;0.30;;
40939;SDS011;26666;50.156;7.700;2023-06-26T15:41:42;1.38;;;0.10;;
40939;SDS011;26666;50.156;7.700;2023-06-26T15:46:44;2.72;;;0.95;;
40939;SDS011;26666;50.156;7.700;2023-06-26T15:51:47;6.75;;;0.80;;
40939;SDS011;26666;50.156;7.700;2023-06-26T15:56:49;0.90;;;0.25;;
40939;SDS011;26666;50.156;7.700;2023-06-26T16:01:51;4.47;;;0.55;;
40939;SDS011;26666;50.156;7.700;2023-06-26T16:06:54;4.60;;;0.10;;
40939;SDS011;26666;50.156;7.700;2023-06-26T16:11:56;2.50;;;0.63;;
40939;SDS011;26666;50.156;7.700;2023-06-26T16:16:57;2.60;;;0.20;;
40939;SDS011;26666;50.156;7.700;2023-06-26T16:22:04;4.30;;;0.40;;
40939;SDS011;26666;50.156;7.700;2023-06-26T16:27:06;3.78;;;0.40;;
40939;SDS011;26666;50.156;7.700;2023-06-26T16:32:08;0.80;;;0.60;;
40939;SDS011;26666;50.156;7.700;2023-06-26T16:37:11;4.95;;;0.38;;
40939;SDS011;26666;50.156;7.700;2023-06-26T16:42:13;1.88;;;0.10;;
40939;SDS011;26666;50.156;7.700;2023-06-26T16:47:14;1.95;;;0.10;;
40939;SDS011;26666;50.156;7.700;2023-06-26T16:52:17;2.25;;;0.10;;
40939;SDS011;26666;50.156;7.700;2023-06-26T16:57:19;1.88;;;0.20;;
40939;SDS011;26666;50.156;7.700;2023-06-26T17:02:21;3.65;;;0.20;;
40939;SDS011;26666;50.156;7.700;2023-06-26T17:07:24;1.02;;;0.20;;
40939;SDS011;26666;50.156;7.700;2023-06-26T17:12:26;6.00;;;0.10;;
40939;SDS011;26666;50.156;7.700;2023-06-26T17:17:28;0.25;;;0.17;;
40939;SDS011;26666;50.156;7.700;2023-06-26T17:22:31;8.35;;;0.10;;
40939;SDS011;26666;50.156;7.700;2023-06-26T17:27:33;0.17;;;0.00;;
40939;SDS011;26666;50.156;7.700;2023-06-26T17:32:35;0.77;;;0.20;;
40939;SDS011;26666;50.156;7.700;2023-06-26T17:37:38;0.85;;;0.10;;
40939;SDS011;26666;50.156;7.700;2023-06-26T17:42:40;3.17;;;0.68;;
40939;SDS011;26666;50.156;7.700;2023-06-26T17:47:41;0.25;;;0.10;;
40939;SDS011;26666;50.156;7.700;2023-06-26T17:52:45;4.55;;;1.10;;
40939;SDS011;26666;50.156;7.700;2023-06-26T17:57:52;3.92;;;0.20;;
40939;SDS011;26666;50.156;7.700;2023-06-26T18:02:53;3.58;;;0.20;;
40939;SDS011;26666;50.156;7.700;2023-06-26T18:07:57;1.30;;;0.20;;
40939;SDS011;26666;50.156;7.700;2023-06-26T18:13:05;2.72;;;0.10;;
40939;SDS011;26666;50.156;7.700;2023-06-26T18:18:07;2.22;;;0.20;;
40939;SDS011;26666;50.156;7.700;2023-06-26T18:23:10;2.20;;;0.10;;
40939;SDS011;26666;50.156;7.700;2023-06-26T18:28:12;1.25;;;0.10;;
40939;SDS011;26666;50.156;7.700;2023-06-26T18:33:14;0.73;;;0.10;;
40939;SDS011;26666;50.156;7.700;2023-06-26T18:38:17;3.03;;;0.30;;
40939;SDS011;26666;50.156;7.700;2023-06-26T18:43:19;2.70;;;0.10;;
40939;SDS011;26666;50.156;7.700;2023-06-26T18:48:20;4.15;;;0.17;;
40939;SDS011;26666;50.156;7.700;2023-06-26T18:53:23;2.00;;;0.47;;
40939;SDS011;26666;50.156;7.700;2023-06-26T18:58:25;4.40;;;1.50;;
40939;SDS011;26666;50.156;7.700;2023-06-26T19:03:27;0.38;;;0.15;;
40939;SDS011;26666;50.156;7.700;2023-06-26T19:08:30;8.93;;;0.35;;
40939;SDS011;26666;50.156;7.700;2023-06-26T19:13:32;1.00;;;0.20;;
40939;SDS011;26666;50.156;7.700;2023-06-26T19:18:33;0.22;;;0.10;;
40939;SDS011;26666;50.156;7.700;2023-06-26T19:23:37;4.80;;;0.20;;
40939;SDS011;26666;50.156;7.700;2023-06-26T19:28:39;2.50;;;0.20;;
40939;SDS011;26666;50.156;7.700;2023-06-26T19:33:41;2.28;;;0.30;;
40939;SDS011;26666;50.156;7.700;2023-06-26T19:38:44;1.95;;;0.20;;
40939;SDS011;26666;50.156;7.700;2023-06-26T19:43:46;5.93;;;0.10;;
40939;SDS011;26666;50.156;7.700;2023-06-26T19:48:47;3.30;;;0.20;;
40939;SDS011;26666;50.156;7.700;2023-06-26T19:53:50;2.10;;;0.10;;
40939;SDS011;26666;50.156;7.700;2023-06-26T19:58:52;4.10;;;0.20;;
40939;SDS011;26666;50.156;7.700;2023-06-26T20:03:54;2.15;;;0.10;;
40939;SDS011;26666;50.156;7.700;2023-06-26T20:08:58;2.30;;;0.82;;
40939;SDS011;26666;50.156;7.700;2023-06-26T20:14:00;2.25;;;0.10;;
40939;SDS011;26666;50.156;7.700;2023-06-26T20:19:02;2.53;;;0.00;;
40939;SDS011;26666;50.156;7.700;2023-06-26T20:29:10;4.10;;;0.30;;
40939;SDS011;26666;50.156;7.700;2023-06-26T20:34:12;0.38;;;0.10;;
40939;SDS011;26666;50.156;7.700;2023-06-26T20:39:15;0.80;;;0.80;;
40939;SDS011;26666;50.156;7.700;2023-06-26T20:44:17;3.78;;;0.38;;
40939;SDS011;26666;50.156;7.700;2023-06-26T20:49:19;4.38;;;0.10;;
40939;SDS011;26666;50.156;7.700;2023-06-26T20:54:23;2.42;;;0.40;;
40939;SDS011;26666;50.156;7.700;2023-06-26T20:59:36;1.42;;;0.35;;
40939;SDS011;26666;50.156;7.700;2023-06-26T21:16:21;3.05;;;0.17;;
40939;SDS011;26666;50.156;7.700;2023-06-26T21:21:24;1.58;;;0.25;;
40939;SDS011;26666;50.156;7.700;2023-06-26T21:26:25;2.53;;;0.10;;
40939;SDS011;26666;50.156;7.700;2023-06-26T21:31:29;2.72;;;0.25;;
40939;SDS011;26666;50.156;7.700;2023-06-26T21:36:31;1.17;;;0.20;;
40939;SDS011;26666;50.156;7.700;2023-06-26T21:41:32;0.68;;;0.10;;
40939;SDS011;26666;50.156;7.700;2023-06-26T21:46:36;0.90;;;0.10;;
40939;SDS011;26666;50.156;7.700;2023-06-26T21:51:37;1.10;;;0.10;;
40939;SDS011;26666;50.156;7.700;2023-06-26T21:56:39;2.65;;;0.10;;
40939;SDS011;26666;50.156;7.700;2023-06-26T22:01:42;2.88;;;0.10;;
40939;SDS011;26666;50.156;7.700;2023-06-26T22:06:44;2.88;;;0.35;;
40939;SDS011;26666;50.156;7.700;2023-06-26T22:11:45;0.08;;;0.05;;
40939;SDS011;26666;50.156;7.700;2023-06-26T22:16:49;2.20;;;0.20;;
40939;SDS011;26666;50.156;7.700;2023-06-26T22:21:50;0.43;;;0.20;;
40939;SDS011;26666;50.156;7.700;2023-06-26T22:26:52;2.38;;;0.10;;
40939;SDS011;26666;50.156;7.700;2023-06-26T22:31:55;0.10;;;0.00;;
40939;SDS011;26666;50.156;7.700;2023-06-26T22:36:57;2.05;;;0.10;;
40939;SDS011;26666;50.156;7.700;2023-06-26T22:41:59;0.65;;;0.25;;
40939;SDS011;26666;50.156;7.700;2023-06-26T22:47:02;7.95;;;0.40;;
40939;SDS011;26666;50.156;7.700;2023-06-26T22:52:04;1.30;;;0.22;;
40939;SDS011;26666;50.156;7.700;2023-06-26T22:57:06;0.30;;;0.13;;
40939;SDS011;26666;50.156;7.700;2023-06-26T23:02:09;2.47;;;0.10;;
40939;SDS011;26666;50.156;7.700;2023-06-26T23:07:11;2.30;;;0.20;;
40939;SDS011;26666;50.156;7.700;2023-06-26T23:12:13;3.92;;;0.10;;
40939;SDS011;26666;50.156;7.700;2023-06-26T23:17:17;0.10;;;0.00;;
40939;SDS011;26666;50.156;7.700;2023-06-26T23:22:18;0.40;;;0.17;;
40939;SDS011;26666;50.156;7.700;2023-06-26T23:27:20;0.30;;;0.17;;
40939;SDS011;26666;50.156;7.700;2023-06-26T23:32:23;0.00;;;0.00;;
40939;SDS011;26666;50.156;7.700;2023-06-26T23:37:25;3.17;;;0.10;;
40939;SDS011;26666;50.156;7.700;2023-06-26T23:42:27;1.42;;;0.10;;
40939;SDS011;26666;50.156;7.700;2023-06-26T23:47:30;0.88;;;0.20;;
40939;SDS011;26666;50.156;7.700;2023-06-26T23:52:33;0.88;;;0.82;;
40939;SDS011;26666;50.156;7.700;2023-06-26T23:57:35;0.20;;;0.10;;
